Hlavní strana
METAR-TAF:

METAR-TAF

Letiště :

Vamdrup

Kolding, Dánsko

zeměpisná šířka: 55-26N, zeměpisná délka: 009-20E, výška: 44 m

Aktuální stav počasí

Zpráva byla vytvořena před 17 minutami, v 04:50 UTC
Jihozápadní vítr 3 kt
Teplota 0°C
Vlhkost vzduchu 86%
Tlak 1037 hPa

METAR: EKVD 240450Z AUTO 22003KT //// ///////// 00/M02 Q1037

Čas: 06:07 (05:07 UTC)

Předpověď počasí

Zpráva byla vytvořena před 17 hodinami a 14 minutami, v 11:53 UTC
Předpověď platná od 23 v 12 UTC do 23 v 16 UTC
Jihojihozápadní vítr 8 kt
Viditelnost 10 km a více
Žádná oblačnost pod 1500 m, nevyskytují se cumulonimby.

TAF: EKVD 231153Z 2312/2316 20008KT CAVOK

Stav a předpovědi počasí z více než 4 000 letišť (zprávy METAR a TAF).

Červené a žluté tečky na mapě představují dostupné meteorologické stanice.

Když kurzor umístíte na tečku, zobrazí se název stanice.

Pak kliknutím zobrazíte stav a předpověď počasí.

Chcete-li změnit mapu, kliknutím na zelené tlačítko se znaménkem +mapu přiblížíte, kliknutím na zelené tlačítko se znaménkem – mapu oddálíte a kliknutím na zelené šipky přejdete na sousední mapy.


METAR-TAF: